createdAt,value
2023-02-05T00:02:07.356Z,7.10
2023-02-05T00:12:10.511Z,7.73
2023-02-05T00:22:14.907Z,7.07
2023-02-05T00:32:17.967Z,6.30
2023-02-05T00:42:22.924Z,7.73
2023-02-05T00:52:26.074Z,7.67
2023-02-05T01:02:30.809Z,7.70
2023-02-05T01:12:34.343Z,5.67
2023-02-05T01:22:38.821Z,6.43
2023-02-05T01:32:42.835Z,6.10
2023-02-05T01:42:47.930Z,8.10
2023-02-05T01:52:52.040Z,7.63
2023-02-05T02:02:57.404Z,7.90
2023-02-05T02:13:00.748Z,7.93
2023-02-05T02:23:23.540Z,8.37
2023-02-05T02:33:30.942Z,9.50
2023-02-05T02:43:42.146Z,9.33
2023-02-05T02:53:51.845Z,9.67
2023-02-05T03:04:00.610Z,10.63
2023-02-05T03:14:05.450Z,11.33
2023-02-05T03:24:13.882Z,10.90
2023-02-05T03:34:31.252Z,10.70
2023-02-05T03:44:59.050Z,11.40
2023-02-05T03:55:11.653Z,11.10
2023-02-05T04:05:17.068Z,10.10
2023-02-05T04:15:21.910Z,9.97
2023-02-05T04:25:29.396Z,8.53
2023-02-05T04:35:38.031Z,9.20
2023-02-05T04:46:41.729Z,11.23
2023-02-05T04:56:47.909Z,11.67
2023-02-05T05:06:50.903Z,13.83
2023-02-05T05:16:55.336Z,14.87
2023-02-05T05:26:58.493Z,15.07
2023-02-05T05:37:03.017Z,16.23
2023-02-05T05:47:06.063Z,13.47
2023-02-05T05:57:11.100Z,14.40
2023-02-05T06:07:14.239Z,15.10
2023-02-05T06:17:18.868Z,15.00
2023-02-05T06:27:22.182Z,14.73
2023-02-05T06:37:45.469Z,16.17
2023-02-05T06:47:49.873Z,16.97
2023-02-05T06:57:54.317Z,18.27
2023-02-05T07:07:57.441Z,19.47
2023-02-05T07:18:02.116Z,20.20
2023-02-05T07:28:06.099Z,20.60
2023-02-05T07:38:11.004Z,21.50
2023-02-05T07:48:13.973Z,22.10
2023-02-05T07:58:21.271Z,22.27
2023-02-05T08:08:26.501Z,22.83
2023-02-05T08:18:31.113Z,27.13
2023-02-05T08:28:34.168Z,26.60
2023-02-05T08:38:38.704Z,27.83
2023-02-05T08:48:41.826Z,25.63
2023-02-05T08:58:47.497Z,18.67
2023-02-05T09:08:50.624Z,23.27
2023-02-05T09:18:56.940Z,15.47
2023-02-05T09:28:59.996Z,15.23
2023-02-05T09:39:17.453Z,6.07
2023-02-05T09:49:32.014Z,1.67
2023-02-05T09:59:37.067Z,2.00
2023-02-05T10:10:08.254Z,1.00
2023-02-05T10:20:32.072Z,1.60
2023-02-05T10:30:41.447Z,0.80
2023-02-05T10:40:47.104Z,0.70
2023-02-05T10:50:56.364Z,0.53
2023-02-05T11:01:01.607Z,0.70
2023-02-05T11:11:06.439Z,0.83
2023-02-05T11:21:12.566Z,0.90
2023-02-05T11:31:25.977Z,1.57
2023-02-05T11:41:48.254Z,0.93
2023-02-05T11:51:55.567Z,1.97
2023-02-05T12:02:29.375Z,1.03
2023-02-05T12:12:44.050Z,1.10
2023-02-05T12:23:14.922Z,1.77
2023-02-05T12:33:32.482Z,1.67
2023-02-05T12:43:40.203Z,1.50
2023-02-05T12:53:57.609Z,1.70
2023-02-05T13:04:03.690Z,2.27
2023-02-05T13:14:15.429Z,2.93
2023-02-05T13:24:48.780Z,4.40
2023-02-05T13:34:54.947Z,4.30
2023-02-05T13:45:28.971Z,3.70
2023-02-05T13:55:48.815Z,4.07
2023-02-05T14:15:57.566Z,2.33
2023-02-05T14:26:12.046Z,3.20
2023-02-05T14:36:43.458Z,2.97
2023-02-05T14:46:58.201Z,3.30
2023-02-05T14:57:18.798Z,2.73
2023-02-05T15:07:28.015Z,2.27
2023-02-05T15:17:50.908Z,1.83
2023-02-05T15:28:00.660Z,2.63
2023-02-05T15:38:21.429Z,2.50
2023-02-05T15:48:30.769Z,2.93
2023-02-05T15:58:34.030Z,1.67
2023-02-05T16:08:38.455Z,1.60
2023-02-05T16:18:46.876Z,2.83
2023-02-05T16:28:55.512Z,2.00
2023-02-05T16:39:02.883Z,2.27
2023-02-05T16:49:30.295Z,1.53
2023-02-05T16:59:38.958Z,2.07
2023-02-05T17:09:44.049Z,2.93
2023-02-05T17:20:04.411Z,3.13
2023-02-05T17:30:17.425Z,2.30
2023-02-05T17:40:21.244Z,1.83
2023-02-05T17:50:25.730Z,1.93
2023-02-05T18:00:33.090Z,3.10
2023-02-05T18:10:38.040Z,3.27
2023-02-05T18:20:41.154Z,6.97
2023-02-05T18:30:46.027Z,4.87
2023-02-05T18:40:49.252Z,4.60
2023-02-05T18:50:53.832Z,3.33
2023-02-05T19:00:57.320Z,2.63
2023-02-05T19:11:07.472Z,2.47
2023-02-05T19:21:12.044Z,2.50
2023-02-05T19:31:17.204Z,2.83
2023-02-05T19:41:22.383Z,2.13
2023-02-05T19:51:27.057Z,2.53
2023-02-05T20:01:32.442Z,3.50
2023-02-05T20:11:37.156Z,4.50
2023-02-05T20:21:40.609Z,2.47
2023-02-05T20:31:48.029Z,3.37
2023-02-05T20:52:33.043Z,3.90
2023-02-05T21:02:49.888Z,2.33
2023-02-05T21:13:07.052Z,2.83
2023-02-05T21:23:16.047Z,2.90
2023-02-05T21:33:26.924Z,3.03
2023-02-05T21:43:35.894Z,2.63
2023-02-05T21:53:45.879Z,2.37
2023-02-05T22:03:53.666Z,2.80
2023-02-05T22:14:06.578Z,3.10
2023-02-05T22:24:19.608Z,3.27
2023-02-05T22:34:33.172Z,2.53
2023-02-05T22:44:39.794Z,2.73
2023-02-05T22:55:06.536Z,3.30
2023-02-05T23:05:20.023Z,2.90
2023-02-05T23:15:26.336Z,2.57
2023-02-05T23:25:31.935Z,3.90
2023-02-05T23:35:40.046Z,2.47
